createdAt,value
2022-09-28T00:01:54.036Z,21
2022-09-28T00:04:25.312Z,20
2022-09-28T00:06:56.861Z,24
2022-09-28T00:09:28.769Z,28
2022-09-28T00:12:00.197Z,24
2022-09-28T00:14:30.097Z,25
2022-09-28T00:17:01.460Z,20
2022-09-28T00:19:33.300Z,20
2022-09-28T00:22:04.282Z,20
2022-09-28T00:24:35.223Z,22
2022-09-28T00:27:06.447Z,20
2022-09-28T00:29:38.807Z,20
2022-09-28T00:32:10.403Z,16
2022-09-28T00:34:42.323Z,12
2022-09-28T00:37:13.611Z,12
2022-09-28T00:39:46.071Z,12
2022-09-28T00:42:17.416Z,11
2022-09-28T00:44:48.611Z,8
2022-09-28T00:47:18.172Z,4
2022-09-28T00:49:49.263Z,2
2022-09-28T00:52:21.624Z,4
2022-09-28T00:54:52.929Z,3
2022-09-28T00:57:23.645Z,4
2022-09-28T00:59:55.430Z,0
2022-09-28T01:02:26.383Z,4
2022-09-28T01:04:58.551Z,0
2022-09-28T01:07:28.362Z,0
2022-09-28T01:09:59.621Z,1
2022-09-28T01:12:30.860Z,0
2022-09-28T01:15:02.613Z,0
2022-09-28T01:17:34.089Z,0
2022-09-28T01:20:06.911Z,0
2022-09-28T01:22:38.578Z,0
2022-09-28T01:25:09.653Z,0
2022-09-28T01:27:40.282Z,0
2022-09-28T01:30:11.825Z,2
2022-09-28T01:32:43.020Z,0
2022-09-28T01:35:14.100Z,4
2022-09-28T01:37:45.223Z,4
2022-09-28T01:40:17.264Z,4
2022-09-28T01:42:48.422Z,0
2022-09-28T01:45:19.700Z,0
2022-09-28T01:47:49.120Z,4
2022-09-28T01:50:20.972Z,0
2022-09-28T01:52:51.835Z,1
2022-09-28T01:55:23.193Z,4
2022-09-28T01:57:54.539Z,4
2022-09-28T02:00:26.089Z,4
2022-09-28T02:02:57.101Z,4
2022-09-28T02:05:28.985Z,4
2022-09-28T02:08:01.526Z,4
2022-09-28T02:10:33.017Z,0
2022-09-28T02:13:04.317Z,4
2022-09-28T02:15:36.244Z,4
2022-09-28T02:18:07.278Z,4
2022-09-28T02:20:37.355Z,1
2022-09-28T02:23:08.227Z,4
2022-09-28T02:25:40.205Z,4
2022-09-28T02:28:11.341Z,4
2022-09-28T02:30:46.584Z,4
2022-09-28T02:33:18.747Z,4
2022-09-28T02:35:51.079Z,4
2022-09-28T02:38:22.376Z,4
2022-09-28T02:40:54.044Z,1
2022-09-28T02:43:26.688Z,4
2022-09-28T02:45:58.586Z,4
2022-09-28T02:48:42.981Z,4
2022-09-28T02:51:01.430Z,4
2022-09-28T02:53:31.405Z,4
2022-09-28T02:56:03.160Z,4
2022-09-28T02:58:36.782Z,4
2022-09-28T03:01:07.789Z,7
2022-09-28T03:03:38.889Z,4
2022-09-28T03:06:10.124Z,4
2022-09-28T03:08:41.211Z,4
2022-09-28T03:11:11.963Z,4
2022-09-28T03:13:43.149Z,4
2022-09-28T03:16:16.510Z,4
2022-09-28T03:18:47.221Z,4
2022-09-28T03:21:19.381Z,4
2022-09-28T03:23:51.759Z,4
2022-09-28T03:26:23.202Z,4
2022-09-28T03:28:54.554Z,4
2022-09-28T03:31:25.733Z,8
2022-09-28T03:33:58.191Z,4
2022-09-28T03:36:30.761Z,4
2022-09-28T03:39:01.616Z,4
2022-09-28T03:41:33.235Z,7
2022-09-28T03:44:04.017Z,8
2022-09-28T03:46:35.374Z,4
2022-09-28T03:49:06.580Z,8
2022-09-28T03:51:37.467Z,8
2022-09-28T03:54:08.733Z,9
2022-09-28T03:56:39.561Z,7
2022-09-28T03:59:10.344Z,7
2022-09-28T04:01:41.204Z,8
2022-09-28T04:04:10.327Z,8
2022-09-28T04:06:45.170Z,6
2022-09-28T04:09:17.474Z,4
2022-09-28T04:12:03.136Z,6
2022-09-28T04:14:18.177Z,7
2022-09-28T04:16:48.889Z,8
2022-09-28T04:19:19.641Z,8
2022-09-28T04:21:50.297Z,4
2022-09-28T04:24:21.890Z,8
2022-09-28T04:26:53.092Z,4
2022-09-28T04:29:25.410Z,8
2022-09-28T04:31:57.444Z,8
2022-09-28T04:34:33.226Z,12
2022-09-28T04:37:00.498Z,13
2022-09-28T04:39:31.564Z,8
2022-09-28T04:42:02.941Z,11
2022-09-28T04:44:33.964Z,12
2022-09-28T04:47:05.510Z,12
2022-09-28T04:49:36.319Z,12
2022-09-28T04:52:07.203Z,12
2022-09-28T04:54:38.642Z,12
2022-09-28T04:57:09.896Z,8
2022-09-28T04:59:40.675Z,12
2022-09-28T05:02:11.789Z,16
2022-09-28T05:04:45.914Z,16
2022-09-28T05:07:16.922Z,15
2022-09-28T05:09:48.091Z,12
2022-09-28T05:12:19.079Z,12
2022-09-28T05:14:51.543Z,12
2022-09-28T05:17:22.906Z,8
2022-09-28T05:19:53.802Z,12
2022-09-28T05:22:25.193Z,12
2022-09-28T05:24:56.691Z,8
2022-09-28T05:27:28.620Z,8
2022-09-28T05:29:59.665Z,8
2022-09-28T05:32:31.008Z,8
2022-09-28T05:35:01.948Z,9
2022-09-28T05:37:33.225Z,4
2022-09-28T05:40:04.200Z,8
2022-09-28T05:42:35.140Z,12
2022-09-28T05:45:06.391Z,12
2022-09-28T05:47:38.585Z,14
2022-09-28T05:50:09.903Z,16
2022-09-28T05:52:40.735Z,18
2022-09-28T05:55:11.585Z,13
2022-09-28T05:57:42.375Z,12
2022-09-28T06:00:13.361Z,14
2022-09-28T06:02:45.032Z,16
2022-09-28T06:05:15.880Z,16
2022-09-28T06:07:46.819Z,14
2022-09-28T06:10:17.740Z,16
2022-09-28T06:12:49.580Z,16
2022-09-28T06:17:54.671Z,16
2022-09-28T06:20:25.344Z,16
2022-09-28T06:22:55.228Z,16
2022-09-28T06:25:24.964Z,17
2022-09-28T06:27:56.763Z,8
2022-09-28T06:30:28.316Z,15
2022-09-28T06:32:59.270Z,12
2022-09-28T06:35:30.004Z,8
2022-09-28T06:37:59.248Z,8
2022-09-28T06:40:30.632Z,12
2022-09-28T06:43:02.887Z,11
2022-09-28T06:45:33.694Z,12
2022-09-28T06:48:04.593Z,12
2022-09-28T06:50:37.173Z,12
2022-09-28T06:53:08.752Z,10
2022-09-28T06:55:39.580Z,8
2022-09-28T06:58:12.460Z,10
2022-09-28T07:00:43.196Z,12
2022-09-28T07:03:13.506Z,8
2022-09-28T07:05:44.153Z,12
2022-09-28T07:08:16.113Z,12
2022-09-28T07:10:46.902Z,12
2022-09-28T07:13:41.988Z,13
2022-09-28T07:15:49.617Z,8
2022-09-28T07:18:20.976Z,15
2022-09-28T07:20:54.616Z,16
2022-09-28T07:23:21.685Z,12
2022-09-28T07:25:52.506Z,16
2022-09-28T07:28:23.351Z,9
2022-09-28T07:30:54.206Z,12
2022-09-28T07:33:25.334Z,16
2022-09-28T07:36:00.832Z,12
2022-09-28T07:38:31.752Z,8
2022-09-28T07:41:03.019Z,13
2022-09-28T07:43:34.615Z,20
2022-09-28T07:46:06.684Z,23
2022-09-28T07:48:38.103Z,16
2022-09-28T07:51:09.725Z,16
2022-09-28T07:53:40.652Z,16
2022-09-28T07:56:11.322Z,15
2022-09-28T07:58:43.560Z,16
2022-09-28T08:01:14.472Z,20
2022-09-28T08:03:45.159Z,15
2022-09-28T08:06:15.632Z,12
2022-09-28T08:08:46.762Z,12
2022-09-28T08:11:17.081Z,12
2022-09-28T08:13:47.840Z,12
2022-09-28T08:16:17.372Z,20
2022-09-28T08:18:46.464Z,20
2022-09-28T08:21:17.802Z,18
2022-09-28T08:23:48.340Z,12
2022-09-28T08:26:19.292Z,16
2022-09-28T08:28:49.830Z,16
2022-09-28T08:31:19.150Z,16
2022-09-28T08:33:51.541Z,16
2022-09-28T08:36:22.372Z,17
2022-09-28T08:38:58.884Z,20
2022-09-28T08:41:29.980Z,16
2022-09-28T08:44:00.605Z,13
2022-09-28T08:46:31.090Z,16
2022-09-28T08:49:20.906Z,16
2022-09-28T08:51:32.997Z,12
2022-09-28T08:54:05.771Z,12
2022-09-28T08:56:34.888Z,12
2022-09-28T08:59:04.565Z,20
2022-09-28T09:01:36.943Z,12
2022-09-28T09:04:06.126Z,20
2022-09-28T09:06:37.338Z,16
2022-09-28T09:09:08.497Z,10
2022-09-28T09:11:40.273Z,12
2022-09-28T09:14:09.583Z,15
2022-09-28T09:16:40.658Z,8
2022-09-28T09:19:11.624Z,10
2022-09-28T09:24:15.406Z,8
2022-09-28T09:26:46.249Z,4
2022-09-28T09:29:18.846Z,4
2022-09-28T09:31:50.381Z,15
2022-09-28T09:34:20.924Z,12
2022-09-28T09:37:00.014Z,8
2022-09-28T09:39:30.371Z,8
2022-09-28T09:42:01.020Z,23
2022-09-28T09:44:34.982Z,4
2022-09-28T09:47:07.011Z,12
2022-09-28T09:49:38.946Z,4
2022-09-28T09:52:10.614Z,12
2022-09-28T09:54:41.544Z,8
2022-09-28T09:57:11.862Z,4
2022-09-28T09:59:43.925Z,11
2022-09-28T10:02:15.669Z,4
2022-09-28T10:04:46.717Z,4
2022-09-28T10:07:17.672Z,4
2022-09-28T10:09:48.666Z,4
2022-09-28T10:12:19.553Z,4
2022-09-28T10:14:51.405Z,6
2022-09-28T10:17:22.173Z,4
2022-09-28T10:19:52.409Z,3
2022-09-28T10:22:23.055Z,25
2022-09-28T10:24:53.744Z,4
2022-09-28T10:27:24.981Z,2
2022-09-28T10:29:55.687Z,0
2022-09-28T10:32:27.963Z,4
2022-09-28T10:34:59.339Z,6
2022-09-28T10:37:30.034Z,9
2022-09-28T10:40:02.487Z,8
2022-09-28T10:42:33.133Z,9
2022-09-28T10:45:04.659Z,4
2022-09-28T10:47:40.360Z,12
2022-09-28T10:50:11.729Z,9
2022-09-28T10:52:41.154Z,8
2022-09-28T10:55:11.904Z,8
2022-09-28T10:57:43.280Z,8
2022-09-28T11:00:14.634Z,5
2022-09-28T11:02:45.490Z,12
2022-09-28T11:05:19.211Z,8
2022-09-28T11:07:50.183Z,9
2022-09-28T11:10:20.335Z,8
2022-09-28T11:12:51.482Z,8
2022-09-28T11:15:22.562Z,8
2022-09-28T11:17:53.665Z,8
2022-09-28T11:20:31.461Z,12
2022-09-28T11:23:02.546Z,12
2022-09-28T11:25:33.759Z,12
2022-09-28T11:28:04.781Z,12
2022-09-28T11:30:36.798Z,16
2022-09-28T11:33:08.511Z,20
2022-09-28T11:35:39.088Z,20
2022-09-28T11:38:09.864Z,16
2022-09-28T11:40:40.545Z,12
2022-09-28T11:43:12.361Z,13
2022-09-28T11:45:43.644Z,17
2022-09-28T11:48:14.347Z,12
2022-09-28T11:50:43.740Z,8
2022-09-28T11:53:14.526Z,12
2022-09-28T11:55:45.855Z,16
2022-09-28T11:58:15.287Z,17
2022-09-28T12:00:46.075Z,12
2022-09-28T12:03:17.258Z,8
2022-09-28T12:05:47.803Z,12
2022-09-28T12:08:18.703Z,8
2022-09-28T12:10:49.904Z,12
2022-09-28T12:13:21.692Z,12
2022-09-28T12:16:17.406Z,12
2022-09-28T12:18:23.886Z,12
2022-09-28T12:20:55.637Z,10
2022-09-28T12:23:26.523Z,8
2022-09-28T12:26:01.011Z,12
2022-09-28T12:28:32.267Z,12
2022-09-28T12:31:03.118Z,12
2022-09-28T12:33:34.195Z,16
2022-09-28T12:36:05.204Z,12
2022-09-28T12:38:35.944Z,49
2022-09-28T12:41:07.037Z,16
2022-09-28T12:43:37.440Z,15
2022-09-28T12:46:12.242Z,8
2022-09-28T12:48:40.564Z,12
2022-09-28T12:51:11.141Z,12
2022-09-28T12:53:42.146Z,12
2022-09-28T12:56:14.779Z,8
2022-09-28T12:58:44.150Z,12
2022-09-28T13:01:15.065Z,12
2022-09-28T13:03:46.136Z,16
2022-09-28T13:06:16.732Z,12
2022-09-28T13:08:47.421Z,12
2022-09-28T13:11:18.375Z,14
2022-09-28T13:13:47.845Z,12
2022-09-28T13:16:18.906Z,12
2022-09-28T13:18:48.518Z,13
2022-09-28T13:21:19.133Z,12
2022-09-28T13:23:51.660Z,12
2022-09-28T13:26:23.151Z,16
2022-09-28T13:28:54.366Z,14
2022-09-28T13:31:26.707Z,20
2022-09-28T13:33:57.033Z,18
2022-09-28T13:36:28.376Z,19
2022-09-28T13:39:00.424Z,21
2022-09-28T13:41:31.648Z,16
2022-09-28T13:44:02.443Z,16
2022-09-28T13:46:35.008Z,17
2022-09-28T13:49:05.231Z,16
2022-09-28T13:51:36.134Z,19
2022-09-28T13:54:07.289Z,12
2022-09-28T13:56:38.493Z,16
2022-09-28T13:59:09.196Z,24
2022-09-28T14:01:40.514Z,28
2022-09-28T14:04:11.232Z,12
2022-09-28T14:06:43.021Z,12
2022-09-28T14:09:14.180Z,16
2022-09-28T14:11:45.241Z,16
2022-09-28T14:14:14.785Z,16
2022-09-28T14:16:45.480Z,19
2022-09-28T14:19:16.015Z,19
2022-09-28T14:21:47.095Z,15
2022-09-28T14:24:17.922Z,19
2022-09-28T14:26:48.759Z,17
2022-09-28T14:29:19.274Z,20
2022-09-28T14:31:49.664Z,17
2022-09-28T14:34:21.776Z,19
2022-09-28T14:36:52.488Z,24
2022-09-28T14:39:23.531Z,21
2022-09-28T14:41:54.818Z,20
2022-09-28T14:44:25.963Z,20
2022-09-28T14:46:56.653Z,16
2022-09-28T14:49:28.246Z,24
2022-09-28T14:51:59.413Z,19
2022-09-28T14:54:30.598Z,23
2022-09-28T14:57:01.229Z,20
2022-09-28T14:59:31.705Z,22
2022-09-28T15:02:02.205Z,20
2022-09-28T15:04:32.846Z,20
2022-09-28T15:07:03.159Z,20
2022-09-28T15:09:34.143Z,20
2022-09-28T15:12:05.163Z,20
2022-09-28T15:14:36.167Z,20
2022-09-28T15:17:07.203Z,20
2022-09-28T15:19:38.244Z,16
2022-09-28T15:22:09.244Z,28
2022-09-28T15:24:41.300Z,24
2022-09-28T15:27:13.749Z,20
2022-09-28T15:29:44.496Z,23
2022-09-28T15:32:15.068Z,20
2022-09-28T15:34:45.493Z,20
2022-09-28T15:37:16.355Z,20
2022-09-28T15:39:46.496Z,24
2022-09-28T15:42:17.401Z,24
2022-09-28T15:44:47.552Z,24
2022-09-28T15:47:18.969Z,24
2022-09-28T15:49:49.616Z,24
2022-09-28T15:52:21.313Z,28
2022-09-28T15:54:51.963Z,31
2022-09-28T15:57:22.364Z,25
2022-09-28T15:59:53.202Z,27
2022-09-28T16:02:23.946Z,20
2022-09-28T16:04:55.059Z,21
2022-09-28T16:07:26.100Z,23
2022-09-28T16:09:56.795Z,24
2022-09-28T16:12:28.866Z,25
2022-09-28T16:14:59.639Z,26
2022-09-28T16:17:31.013Z,24
2022-09-28T16:20:01.537Z,27
2022-09-28T16:22:32.113Z,24
2022-09-28T16:25:03.712Z,26
2022-09-28T16:27:35.377Z,24
2022-09-28T16:30:06.744Z,24
2022-09-28T16:32:37.387Z,24
2022-09-28T16:35:09.195Z,24
2022-09-28T16:37:40.060Z,24
2022-09-28T16:40:11.014Z,24
2022-09-28T16:42:40.092Z,24
2022-09-28T16:45:10.802Z,29
2022-09-28T16:47:41.428Z,28
2022-09-28T16:50:13.274Z,25
2022-09-28T16:52:44.015Z,27
2022-09-28T16:55:36.132Z,32
2022-09-28T16:57:43.755Z,28
2022-09-28T17:00:14.569Z,27
2022-09-28T17:02:47.066Z,28
2022-09-28T17:05:16.777Z,28
2022-09-28T17:07:47.477Z,24
2022-09-28T17:10:18.185Z,28
2022-09-28T17:12:49.193Z,25
2022-09-28T17:15:19.749Z,28
2022-09-28T17:17:50.445Z,28
2022-09-28T17:20:21.009Z,28
2022-09-28T17:22:50.244Z,28
2022-09-28T17:25:21.245Z,28
2022-09-28T17:27:54.177Z,28
2022-09-28T17:30:25.869Z,28
2022-09-28T17:32:55.909Z,29
2022-09-28T17:35:28.429Z,28
2022-09-28T17:37:59.309Z,24
2022-09-28T17:40:30.162Z,28
2022-09-28T17:43:00.803Z,31
2022-09-28T17:45:31.307Z,45
2022-09-28T17:48:01.815Z,28
2022-09-28T17:50:34.038Z,29
2022-09-28T17:53:03.751Z,32
2022-09-28T17:55:33.273Z,32
2022-09-28T17:58:02.337Z,29
2022-09-28T18:00:32.867Z,29
2022-09-28T18:03:03.620Z,28
2022-09-28T18:05:34.879Z,36
2022-09-28T18:08:06.026Z,36
2022-09-28T18:10:37.237Z,32
2022-09-28T18:13:08.391Z,36
2022-09-28T18:15:39.352Z,32
2022-09-28T18:18:08.464Z,33
2022-09-28T18:20:39.502Z,36
2022-09-28T18:23:10.648Z,36
2022-09-28T18:25:41.466Z,40
2022-09-28T18:28:12.109Z,40
2022-09-28T18:30:44.105Z,37
2022-09-28T18:33:15.170Z,40
2022-09-28T18:35:46.341Z,33
2022-09-28T18:38:17.707Z,33
2022-09-28T18:40:48.957Z,32
2022-09-28T18:43:20.063Z,37
2022-09-28T18:45:51.313Z,34
2022-09-28T18:48:21.953Z,34
2022-09-28T18:50:53.179Z,32
2022-09-28T18:53:24.455Z,32
2022-09-28T18:55:56.000Z,32
2022-09-28T18:58:26.327Z,36
2022-09-28T19:01:08.625Z,36
2022-09-28T19:03:28.001Z,36
2022-09-28T19:05:58.600Z,37
2022-09-28T19:08:29.460Z,36
2022-09-28T19:10:59.955Z,36
2022-09-28T19:13:30.640Z,36
2022-09-28T19:16:01.320Z,37
2022-09-28T19:18:31.748Z,36
2022-09-28T19:21:02.847Z,39
2022-09-28T19:23:34.476Z,36
2022-09-28T19:26:06.547Z,47
2022-09-28T19:28:37.660Z,43
2022-09-28T19:31:08.025Z,37
2022-09-28T19:33:38.661Z,36
2022-09-28T19:36:09.689Z,36
2022-09-28T19:38:40.857Z,36
2022-09-28T19:41:11.697Z,34
2022-09-28T19:43:43.669Z,32
2022-09-28T19:46:13.081Z,41
2022-09-28T19:48:46.327Z,33
2022-09-28T19:51:16.932Z,32
2022-09-28T19:53:47.494Z,32
2022-09-28T19:56:17.810Z,32
2022-09-28T19:58:48.246Z,32
2022-09-28T20:01:20.415Z,32
2022-09-28T20:03:50.994Z,31
2022-09-28T20:06:22.020Z,29
2022-09-28T20:08:52.826Z,32
2022-09-28T20:11:23.605Z,31
2022-09-28T20:13:54.492Z,32
2022-09-28T20:16:25.973Z,28
2022-09-28T20:18:56.947Z,29
2022-09-28T20:21:27.978Z,32
2022-09-28T20:23:58.875Z,32
2022-09-28T20:26:30.258Z,32
2022-09-28T20:28:59.854Z,32
2022-09-28T20:31:30.384Z,28
2022-09-28T20:34:01.350Z,28
2022-09-28T20:36:32.939Z,29
2022-09-28T20:39:03.700Z,26
2022-09-28T20:41:34.836Z,28
2022-09-28T20:44:06.093Z,28
2022-09-28T20:46:34.467Z,28
2022-09-28T20:49:04.915Z,24
2022-09-28T20:51:37.360Z,28
2022-09-28T20:54:08.359Z,28
2022-09-28T20:56:38.103Z,24
2022-09-28T20:59:08.594Z,26
2022-09-28T21:01:40.325Z,20
2022-09-28T21:04:11.326Z,21
2022-09-28T21:06:42.228Z,22
2022-09-28T21:09:13.509Z,20
2022-09-28T21:11:45.311Z,24
2022-09-28T21:14:15.728Z,20
2022-09-28T21:16:47.699Z,20
2022-09-28T21:19:19.048Z,20
2022-09-28T21:21:50.556Z,21
2022-09-28T21:24:21.085Z,20
2022-09-28T21:26:52.034Z,20
2022-09-28T21:29:23.030Z,20
2022-09-28T21:31:52.040Z,16
2022-09-28T21:34:22.841Z,19
2022-09-28T21:36:53.395Z,16
2022-09-28T21:39:24.827Z,13
2022-09-28T21:41:55.941Z,20
2022-09-28T21:44:26.635Z,16
2022-09-28T21:46:58.911Z,16
2022-09-28T21:49:29.886Z,15
2022-09-28T21:52:00.810Z,18
2022-09-28T21:54:31.558Z,16
2022-09-28T21:57:02.559Z,15
2022-09-28T21:59:33.847Z,16
2022-09-28T22:02:05.355Z,12
2022-09-28T22:04:36.505Z,15
2022-09-28T22:07:07.009Z,17
2022-09-28T22:09:36.429Z,17
2022-09-28T22:12:07.935Z,15
2022-09-28T22:14:38.932Z,16
2022-09-28T22:17:10.424Z,16
2022-09-28T22:19:41.629Z,16
2022-09-28T22:22:12.966Z,13
2022-09-28T22:24:43.975Z,13
2022-09-28T22:27:14.647Z,12
2022-09-28T22:29:44.669Z,13
2022-09-28T22:32:15.213Z,11
2022-09-28T22:34:45.099Z,12
2022-09-28T22:37:15.810Z,12
2022-09-28T22:39:47.541Z,10
2022-09-28T22:42:18.604Z,11
2022-09-28T22:44:49.454Z,9
2022-09-28T22:47:21.258Z,12
2022-09-28T22:49:51.783Z,9
2022-09-28T22:52:21.186Z,8
2022-09-28T22:54:52.999Z,15
2022-09-28T22:57:23.964Z,8
2022-09-28T22:59:56.891Z,12
2022-09-28T23:05:03.454Z,12
2022-09-28T23:07:34.580Z,11
2022-09-28T23:10:06.108Z,12
2022-09-28T23:12:37.543Z,11
2022-09-28T23:15:08.627Z,12
2022-09-28T23:17:39.555Z,12
2022-09-28T23:20:10.682Z,12
2022-09-28T23:22:41.475Z,8
2022-09-28T23:25:13.700Z,12
2022-09-28T23:27:45.372Z,12
2022-09-28T23:30:16.617Z,8
2022-09-28T23:32:48.083Z,9
2022-09-28T23:35:19.644Z,12
2022-09-28T23:37:49.050Z,9
2022-09-28T23:40:21.898Z,10
2022-09-28T23:42:53.348Z,9
2022-09-28T23:45:26.123Z,12
2022-09-28T23:47:58.003Z,12
2022-09-28T23:50:29.315Z,8
2022-09-28T23:53:00.376Z,8
2022-09-28T23:55:29.983Z,12
2022-09-28T23:58:00.461Z,8
